createdAt,value
2019-03-01T00:00:19.835Z,1001.49
2019-03-01T00:01:19.879Z,1001.45
2019-03-01T00:02:19.887Z,1001.45
2019-03-01T00:03:19.946Z,1001.47
2019-03-01T00:04:19.911Z,1001.45
2019-03-01T00:05:19.827Z,1001.47
2019-03-01T00:06:19.903Z,1001.51
2019-03-01T00:07:19.819Z,1001.46
2019-03-01T00:08:19.840Z,1001.46
2019-03-01T00:09:19.881Z,1001.43
2019-03-01T00:10:19.784Z,1001.44
2019-03-01T00:11:19.925Z,1001.43
2019-03-01T00:12:19.917Z,1001.42
2019-03-01T00:13:19.859Z,1001.39
2019-03-01T00:14:19.857Z,1001.41
2019-03-01T00:15:19.852Z,1001.40
2019-03-01T00:16:19.887Z,1001.38
2019-03-01T00:17:19.892Z,1001.37
2019-03-01T00:18:19.903Z,1001.34
2019-03-01T00:19:19.810Z,1001.32
2019-03-01T00:20:19.893Z,1001.29
2019-03-01T00:21:19.877Z,1001.27
2019-03-01T00:22:19.850Z,1001.23
2019-03-01T00:23:19.881Z,1001.24
2019-03-01T00:24:19.800Z,1001.25
2019-03-01T00:25:19.778Z,1001.27
2019-03-01T00:26:19.884Z,1001.24
2019-03-01T00:27:19.891Z,1001.21
2019-03-01T00:28:19.898Z,1001.22
2019-03-01T00:29:19.777Z,1001.21
2019-03-01T00:30:19.823Z,1001.22
2019-03-01T00:31:19.870Z,1001.23
2019-03-01T00:32:19.925Z,1001.23
2019-03-01T00:33:19.860Z,1001.21
2019-03-01T00:34:19.914Z,1001.20
2019-03-01T00:35:19.820Z,1001.19
2019-03-01T00:36:19.805Z,1001.15
2019-03-01T00:37:19.877Z,1001.13
2019-03-01T00:38:19.873Z,1001.14
2019-03-01T00:39:19.882Z,1001.11
2019-03-01T00:40:19.866Z,1001.11
2019-03-01T00:41:19.814Z,1001.10
2019-03-01T00:42:19.913Z,1001.08
2019-03-01T00:43:19.916Z,1001.07
2019-03-01T00:44:19.929Z,1001.07
2019-03-01T00:45:19.936Z,1001.10
2019-03-01T00:46:19.862Z,1001.09
2019-03-01T00:47:19.881Z,1001.05
2019-03-01T00:48:19.943Z,1001.08
2019-03-01T00:49:19.850Z,1001.06
2019-03-01T00:50:19.880Z,1001.04
2019-03-01T00:51:19.865Z,1001.00
2019-03-01T00:52:19.938Z,1000.99
2019-03-01T00:53:19.932Z,1000.99
2019-03-01T00:54:19.892Z,1001.01
2019-03-01T00:55:20.055Z,1000.99
2019-03-01T00:56:19.871Z,1000.99
2019-03-01T00:57:19.915Z,1000.93
2019-03-01T00:58:19.960Z,1000.94
2019-03-01T00:59:19.919Z,1000.90
2019-03-01T01:00:19.946Z,1000.88
2019-03-01T01:01:19.947Z,1000.84
2019-03-01T01:02:19.900Z,1000.88
2019-03-01T01:03:19.886Z,1000.87
2019-03-01T01:04:19.896Z,1000.85
2019-03-01T01:05:19.944Z,1000.84
2019-03-01T01:06:19.886Z,1000.84
2019-03-01T01:07:19.998Z,1000.85
2019-03-01T01:08:19.890Z,1000.87
2019-03-01T01:09:19.903Z,1000.89
2019-03-01T01:10:19.926Z,1000.86
2019-03-01T01:11:19.862Z,1000.85
2019-03-01T01:12:19.925Z,1000.84
2019-03-01T01:13:19.933Z,1000.83
2019-03-01T01:14:19.928Z,1000.78
2019-03-01T01:15:19.854Z,1000.76
2019-03-01T01:16:19.865Z,1000.76
2019-03-01T01:17:19.863Z,1000.75
2019-03-01T01:18:19.931Z,1000.72
2019-03-01T01:19:19.865Z,1000.71
2019-03-01T01:20:19.914Z,1000.71
2019-03-01T01:21:19.857Z,1000.72
2019-03-01T01:22:19.890Z,1000.74
2019-03-01T01:23:19.916Z,1000.69
2019-03-01T01:24:19.977Z,1000.70
2019-03-01T01:25:19.888Z,1000.67
2019-03-01T01:26:19.859Z,1000.66
2019-03-01T01:27:19.908Z,1000.57
2019-03-01T01:28:19.977Z,1000.61
2019-03-01T01:29:19.844Z,1000.59
2019-03-01T01:30:19.894Z,1000.59
2019-03-01T01:31:19.941Z,1000.62
2019-03-01T01:32:19.883Z,1000.55
2019-03-01T01:33:19.953Z,1000.58
2019-03-01T01:34:19.902Z,1000.58
2019-03-01T01:35:19.902Z,1000.56
2019-03-01T01:36:19.849Z,1000.54
2019-03-01T01:37:19.983Z,1000.53
2019-03-01T01:38:19.849Z,1000.53
2019-03-01T01:39:19.907Z,1000.51
2019-03-01T01:40:19.976Z,1000.53
2019-03-01T01:41:19.969Z,1000.54
2019-03-01T01:42:19.969Z,1000.50
2019-03-01T01:43:19.913Z,1000.52
2019-03-01T01:44:19.990Z,1000.54
2019-03-01T01:45:19.911Z,1000.49
2019-03-01T01:46:19.851Z,1000.50
2019-03-01T01:47:19.910Z,1000.49
2019-03-01T01:48:19.894Z,1000.45
2019-03-01T01:49:19.911Z,1000.46
2019-03-01T01:50:19.966Z,1000.42
2019-03-01T01:51:19.896Z,1000.40
2019-03-01T01:52:19.980Z,1000.37
2019-03-01T01:53:19.893Z,1000.42
2019-03-01T01:54:19.916Z,1000.36
2019-03-01T01:55:19.908Z,1000.34
2019-03-01T01:56:19.973Z,1000.32
2019-03-01T01:57:19.977Z,1000.34
2019-03-01T01:58:19.914Z,1000.33
2019-03-01T01:59:19.976Z,1000.32
2019-03-01T02:00:19.959Z,1000.28
2019-03-01T02:01:19.888Z,1000.35
2019-03-01T02:02:19.909Z,1000.31
2019-03-01T02:03:19.896Z,1000.35
2019-03-01T02:04:19.971Z,1000.31
2019-03-01T02:05:19.907Z,1000.29
2019-03-01T02:06:19.970Z,1000.30
2019-03-01T02:07:19.896Z,1000.29
2019-03-01T02:08:19.966Z,1000.28
2019-03-01T02:09:19.965Z,1000.25
2019-03-01T02:10:19.990Z,1000.28
2019-03-01T02:11:19.982Z,1000.20
2019-03-01T02:12:19.907Z,1000.26
2019-03-01T02:13:19.977Z,1000.22
2019-03-01T02:14:19.988Z,1000.27
2019-03-01T02:15:19.925Z,1000.21
2019-03-01T02:16:19.980Z,1000.23
2019-03-01T02:17:19.923Z,1000.20
2019-03-01T02:18:19.911Z,1000.18
2019-03-01T02:19:19.921Z,1000.15
2019-03-01T02:20:19.993Z,1000.12
2019-03-01T02:21:19.986Z,1000.20
2019-03-01T02:22:19.971Z,1000.15
2019-03-01T02:23:20.000Z,1000.08
2019-03-01T02:24:19.935Z,1000.12
2019-03-01T02:25:19.919Z,1000.12
2019-03-01T02:26:19.910Z,1000.10
2019-03-01T02:27:20.006Z,1000.06
2019-03-01T02:28:19.996Z,1000.09
2019-03-01T02:29:19.990Z,1000.08
2019-03-01T02:30:19.945Z,1000.07
2019-03-01T02:31:20.052Z,1000.09
2019-03-01T02:32:20.017Z,1000.04
2019-03-01T02:33:19.971Z,1000.05
2019-03-01T02:34:20.004Z,1000.03
2019-03-01T02:35:19.884Z,1000.05
2019-03-01T02:36:20.023Z,1000.07
2019-03-01T02:37:19.964Z,1000.08
2019-03-01T02:38:20.028Z,1000.04
2019-03-01T02:39:20.016Z,1000.03
2019-03-01T02:40:20.010Z,1000.06
2019-03-01T02:41:20.011Z,1000.03
2019-03-01T02:42:20.009Z,1000.01
2019-03-01T02:43:19.961Z,1000.00
2019-03-01T02:44:19.995Z,1000.00
2019-03-01T02:45:20.003Z,999.98
2019-03-01T02:46:20.036Z,999.97
2019-03-01T02:47:19.948Z,999.93
2019-03-01T02:48:19.947Z,999.88
2019-03-01T02:49:19.959Z,999.85
2019-03-01T02:50:19.946Z,999.84
2019-03-01T02:51:19.956Z,999.81
2019-03-01T02:52:20.018Z,999.79
2019-03-01T02:53:19.957Z,999.74
2019-03-01T02:54:20.123Z,999.77
2019-03-01T02:55:19.958Z,999.79
2019-03-01T02:56:19.907Z,999.79
2019-03-01T02:57:20.024Z,999.75
2019-03-01T02:58:19.913Z,999.69
2019-03-01T02:59:20.072Z,999.74
2019-03-01T03:00:20.025Z,999.75
2019-03-01T03:01:20.009Z,999.72
2019-03-01T03:02:19.933Z,999.73
2019-03-01T03:03:20.043Z,999.72
2019-03-01T03:04:19.949Z,999.68
2019-03-01T03:05:20.012Z,999.67
2019-03-01T03:06:19.935Z,999.66
2019-03-01T03:07:20.019Z,999.64
2019-03-01T03:08:20.007Z,999.61
2019-03-01T03:09:20.009Z,999.63
2019-03-01T03:10:19.898Z,999.61
2019-03-01T03:11:19.976Z,999.59
2019-03-01T03:12:20.027Z,999.60
2019-03-01T03:13:19.959Z,999.57
2019-03-01T03:14:19.913Z,999.56
2019-03-01T03:15:19.955Z,999.55
2019-03-01T03:16:19.993Z,999.57
2019-03-01T03:17:19.974Z,999.55
2019-03-01T03:18:20.017Z,999.56
2019-03-01T03:19:19.974Z,999.56
2019-03-01T03:20:20.024Z,999.54
2019-03-01T03:21:20.030Z,999.56
2019-03-01T03:22:19.920Z,999.55
2019-03-01T03:23:19.932Z,999.60
2019-03-01T03:24:19.981Z,999.56
2019-03-01T03:25:20.014Z,999.53
2019-03-01T03:26:19.976Z,999.57
2019-03-01T03:27:19.983Z,999.59
2019-03-01T03:28:19.937Z,999.59
2019-03-01T03:29:20.059Z,999.63
2019-03-01T03:30:20.092Z,999.63
2019-03-01T03:31:19.992Z,999.60
2019-03-01T03:32:20.049Z,999.61
2019-03-01T03:33:20.043Z,999.64
2019-03-01T03:34:20.005Z,999.63
2019-03-01T03:35:19.992Z,999.63
2019-03-01T03:36:20.045Z,999.61
2019-03-01T03:37:20.047Z,999.62
2019-03-01T03:38:20.045Z,999.63
2019-03-01T03:39:20.046Z,999.56
2019-03-01T03:40:19.954Z,999.62
2019-03-01T03:41:20.029Z,999.58
2019-03-01T03:42:20.001Z,999.61
2019-03-01T03:43:22.568Z,999.63
2019-03-01T03:44:19.945Z,999.58
2019-03-01T03:45:19.941Z,999.65
2019-03-01T03:46:20.032Z,999.62
2019-03-01T03:47:20.034Z,999.61
2019-03-01T03:48:20.043Z,999.60
2019-03-01T03:49:19.935Z,999.57
2019-03-01T03:50:20.075Z,999.56
2019-03-01T03:51:19.996Z,999.56
2019-03-01T03:52:19.994Z,999.55
2019-03-01T03:53:19.996Z,999.52
2019-03-01T03:54:20.053Z,999.56
2019-03-01T03:55:20.070Z,999.49
2019-03-01T03:56:20.010Z,999.54
2019-03-01T03:57:20.066Z,999.51
2019-03-01T03:58:20.078Z,999.51
2019-03-01T03:59:20.040Z,999.50
2019-03-01T04:00:20.004Z,999.50
2019-03-01T04:01:20.056Z,999.51
2019-03-01T04:02:19.997Z,999.50
2019-03-01T04:03:19.985Z,999.51
2019-03-01T04:04:19.975Z,999.49
2019-03-01T04:05:19.991Z,999.51
2019-03-01T04:06:20.001Z,999.48
2019-03-01T04:07:19.983Z,999.44
2019-03-01T04:08:20.050Z,999.46
2019-03-01T04:09:20.054Z,999.51
2019-03-01T04:10:20.003Z,999.49
2019-03-01T04:11:20.014Z,999.52
2019-03-01T04:12:19.955Z,999.52
2019-03-01T04:13:20.002Z,999.52
2019-03-01T04:14:20.082Z,999.49
2019-03-01T04:15:19.995Z,999.47
2019-03-01T04:16:20.065Z,999.46
2019-03-01T04:17:20.098Z,999.47
2019-03-01T04:18:20.010Z,999.47
2019-03-01T04:19:20.005Z,999.48
2019-03-01T04:20:20.079Z,999.46
2019-03-01T04:21:19.961Z,999.44
2019-03-01T04:22:19.992Z,999.49
2019-03-01T04:23:20.044Z,999.43
2019-03-01T04:24:19.987Z,999.43
2019-03-01T04:25:19.938Z,999.46
2019-03-01T04:26:20.006Z,999.46
2019-03-01T04:27:20.073Z,999.45
2019-03-01T04:28:19.994Z,999.44
2019-03-01T04:29:19.916Z,999.39
2019-03-01T04:30:20.015Z,999.44
2019-03-01T04:31:20.070Z,999.42
2019-03-01T04:32:20.003Z,999.41
2019-03-01T04:33:20.073Z,999.37
2019-03-01T04:34:20.001Z,999.40
2019-03-01T04:35:20.071Z,999.40
2019-03-01T04:36:20.069Z,999.36
2019-03-01T04:37:20.020Z,999.35
2019-03-01T04:38:20.008Z,999.35
2019-03-01T04:39:20.086Z,999.34
2019-03-01T04:40:20.003Z,999.36
2019-03-01T04:41:19.994Z,999.32
2019-03-01T04:42:20.075Z,999.33
2019-03-01T04:43:20.014Z,999.35
2019-03-01T04:44:20.076Z,999.33
2019-03-01T04:45:20.078Z,999.32
2019-03-01T04:46:20.008Z,999.30
2019-03-01T04:47:20.011Z,999.30
2019-03-01T04:48:20.012Z,999.33
2019-03-01T04:49:20.076Z,999.32
2019-03-01T04:50:20.015Z,999.31
2019-03-01T04:51:20.105Z,999.30
2019-03-01T04:52:20.038Z,999.32
2019-03-01T04:53:20.034Z,999.32
2019-03-01T04:54:20.032Z,999.33
2019-03-01T04:55:20.108Z,999.32
2019-03-01T04:56:21.804Z,999.32
2019-03-01T04:57:20.097Z,999.29
2019-03-01T04:58:20.071Z,999.29
2019-03-01T04:59:20.160Z,999.24
2019-03-01T05:00:20.078Z,999.27
2019-03-01T05:01:20.088Z,999.33
2019-03-01T05:02:20.092Z,999.30
2019-03-01T05:03:20.097Z,999.29
2019-03-01T05:04:20.028Z,999.31
2019-03-01T05:05:20.200Z,999.28
2019-03-01T05:06:20.093Z,999.30
2019-03-01T05:07:20.020Z,999.26
2019-03-01T05:08:20.026Z,999.24
2019-03-01T05:09:20.025Z,999.21
2019-03-01T05:10:20.032Z,999.26
2019-03-01T05:11:20.123Z,999.23
2019-03-01T05:12:20.052Z,999.24
2019-03-01T05:13:20.064Z,999.26
2019-03-01T05:14:20.051Z,999.25
2019-03-01T05:15:20.121Z,999.25
2019-03-01T05:16:20.106Z,999.22
2019-03-01T05:17:20.112Z,999.24
2019-03-01T05:18:20.120Z,999.21
2019-03-01T05:19:20.114Z,999.26
2019-03-01T05:20:20.058Z,999.27
2019-03-01T05:21:20.035Z,999.26
2019-03-01T05:22:20.105Z,999.23
2019-03-01T05:23:20.033Z,999.25
2019-03-01T05:24:20.040Z,999.28
2019-03-01T05:25:20.105Z,999.26
2019-03-01T05:26:20.045Z,999.26
2019-03-01T05:27:20.105Z,999.25
2019-03-01T05:28:20.104Z,999.22
2019-03-01T05:29:20.043Z,999.23
2019-03-01T05:30:20.039Z,999.28
2019-03-01T05:31:20.047Z,999.24
2019-03-01T05:32:20.049Z,999.29
2019-03-01T05:33:20.112Z,999.30
2019-03-01T05:34:20.051Z,999.29
2019-03-01T05:35:20.063Z,999.31
2019-03-01T05:36:20.130Z,999.31
2019-03-01T05:37:20.051Z,999.29
2019-03-01T05:38:21.966Z,999.32
2019-03-01T05:39:20.134Z,999.32
2019-03-01T05:40:20.052Z,999.33
2019-03-01T05:41:20.135Z,999.33
2019-03-01T05:42:20.009Z,999.32
2019-03-01T05:43:20.135Z,999.38
2019-03-01T05:44:20.056Z,999.40
2019-03-01T05:45:20.028Z,999.38
2019-03-01T05:46:20.248Z,999.39
2019-03-01T05:47:20.134Z,999.39
2019-03-01T05:48:20.133Z,999.43
2019-03-01T05:49:20.061Z,999.45
2019-03-01T05:50:20.132Z,999.44
2019-03-01T05:51:20.108Z,999.47
2019-03-01T05:52:20.122Z,999.43
2019-03-01T05:53:20.065Z,999.44
2019-03-01T05:54:20.116Z,999.47
2019-03-01T05:55:20.090Z,999.49
2019-03-01T05:56:20.123Z,999.50
2019-03-01T05:57:20.032Z,999.50
2019-03-01T05:58:20.011Z,999.52
2019-03-01T05:59:20.019Z,999.53
2019-03-01T06:00:20.008Z,999.52
2019-03-01T06:01:20.060Z,999.55
2019-03-01T06:02:20.061Z,999.56
2019-03-01T06:03:20.067Z,999.59
2019-03-01T06:04:20.130Z,999.55
2019-03-01T06:05:20.060Z,999.63
2019-03-01T06:06:20.132Z,999.56
2019-03-01T06:07:20.073Z,999.57
2019-03-01T06:08:20.135Z,999.59
2019-03-01T06:09:20.065Z,999.57
2019-03-01T06:10:20.073Z,999.57
2019-03-01T06:11:20.136Z,999.62
2019-03-01T06:12:20.149Z,999.59
2019-03-01T06:13:20.075Z,999.61
2019-03-01T06:14:20.065Z,999.62
2019-03-01T06:15:20.182Z,999.64
2019-03-01T06:16:20.140Z,999.61
2019-03-01T06:17:20.083Z,999.60
2019-03-01T06:18:20.082Z,999.60
2019-03-01T06:19:20.077Z,999.62
2019-03-01T06:20:20.081Z,999.60
2019-03-01T06:21:20.054Z,999.63
2019-03-01T06:22:20.099Z,999.61
2019-03-01T06:23:20.137Z,999.62
2019-03-01T06:24:20.089Z,999.60
2019-03-01T06:25:20.146Z,999.60
2019-03-01T06:26:20.132Z,999.64
2019-03-01T06:27:20.115Z,999.61
2019-03-01T06:28:20.147Z,999.61
2019-03-01T06:29:20.098Z,999.61
2019-03-01T06:30:20.107Z,999.61
2019-03-01T06:31:20.091Z,999.58
2019-03-01T06:32:20.152Z,999.54
2019-03-01T06:33:20.158Z,999.57
2019-03-01T06:34:20.082Z,999.58
2019-03-01T06:35:20.189Z,999.57
2019-03-01T06:36:20.081Z,999.55
2019-03-01T06:37:20.080Z,999.59
2019-03-01T06:38:20.162Z,999.57
2019-03-01T06:39:20.086Z,999.55
2019-03-01T06:40:20.157Z,999.57
2019-03-01T06:41:20.164Z,999.60
2019-03-01T06:42:20.190Z,999.53
2019-03-01T06:43:20.108Z,999.54
2019-03-01T06:44:20.177Z,999.53
2019-03-01T06:45:20.170Z,999.53
2019-03-01T06:46:20.095Z,999.52
2019-03-01T06:47:20.099Z,999.48
2019-03-01T06:48:20.113Z,999.47
2019-03-01T06:49:20.100Z,999.48
2019-03-01T06:50:20.140Z,999.47
2019-03-01T06:51:28.568Z,999.44
2019-03-01T06:52:20.043Z,999.46
2019-03-01T06:53:20.157Z,999.46
2019-03-01T06:54:20.163Z,999.50
2019-03-01T06:55:20.040Z,999.48
2019-03-01T06:56:20.089Z,999.47
2019-03-01T06:57:20.114Z,999.48
2019-03-01T06:58:20.053Z,999.52
2019-03-01T06:59:20.068Z,999.53
2019-03-01T07:00:20.076Z,999.56
2019-03-01T07:01:20.185Z,999.61
2019-03-01T07:02:20.115Z,999.58
2019-03-01T07:03:20.189Z,999.62
2019-03-01T07:04:20.134Z,999.62
2019-03-01T07:05:20.114Z,999.58
2019-03-01T07:06:20.182Z,999.56
2019-03-01T07:07:20.182Z,999.57
2019-03-01T07:08:20.155Z,999.57
2019-03-01T07:09:20.189Z,999.58
2019-03-01T07:10:20.091Z,999.62
2019-03-01T07:11:20.184Z,999.62
2019-03-01T07:12:20.185Z,999.62
2019-03-01T07:13:20.185Z,999.60
2019-03-01T07:14:20.155Z,999.64
2019-03-01T07:15:20.186Z,999.63
2019-03-01T07:16:20.243Z,999.61
2019-03-01T07:17:20.191Z,999.59
2019-03-01T07:18:20.192Z,999.60
2019-03-01T07:19:20.137Z,999.58
2019-03-01T07:20:20.199Z,999.60
2019-03-01T07:21:20.046Z,999.60
2019-03-01T07:22:20.096Z,999.59
2019-03-01T07:23:20.116Z,999.61
2019-03-01T07:24:20.173Z,999.59
2019-03-01T07:25:20.090Z,999.61
2019-03-01T07:26:20.071Z,999.60
2019-03-01T07:27:20.065Z,999.67
2019-03-01T07:28:20.009Z,999.64
2019-03-01T07:29:20.119Z,999.65
2019-03-01T07:30:20.064Z,999.66
2019-03-01T07:31:20.198Z,999.67
2019-03-01T07:32:20.211Z,999.60
2019-03-01T07:33:20.131Z,999.63
2019-03-01T07:34:20.209Z,999.69
2019-03-01T07:35:20.132Z,999.65
2019-03-01T07:36:20.130Z,999.62
2019-03-01T07:37:21.850Z,999.64
2019-03-01T07:38:20.151Z,999.70
2019-03-01T07:39:20.352Z,999.71
2019-03-01T07:40:20.203Z,999.71
2019-03-01T07:41:20.123Z,999.75
2019-03-01T07:42:20.128Z,999.80
2019-03-01T07:43:20.208Z,999.78
2019-03-01T07:44:20.133Z,999.77
2019-03-01T07:45:20.253Z,999.73
2019-03-01T07:46:20.127Z,999.70
2019-03-01T07:47:20.646Z,999.72
2019-03-01T07:48:20.202Z,999.74
2019-03-01T07:49:20.129Z,999.76
2019-03-01T07:50:20.204Z,999.77
2019-03-01T07:51:20.151Z,999.77
2019-03-01T07:52:20.225Z,999.77
2019-03-01T07:53:20.216Z,999.75
2019-03-01T07:54:22.244Z,999.81
2019-03-01T07:55:20.215Z,999.81
2019-03-01T07:56:20.252Z,999.76
2019-03-01T07:57:20.171Z,999.81
2019-03-01T07:58:21.741Z,999.82
2019-03-01T07:59:20.150Z,999.84
2019-03-01T08:00:20.152Z,999.85
2019-03-01T08:01:20.186Z,999.84
2019-03-01T08:02:20.143Z,999.81
2019-03-01T08:03:20.213Z,999.85
2019-03-01T08:04:20.215Z,999.90
2019-03-01T08:05:20.218Z,999.89
2019-03-01T08:06:20.145Z,999.90
2019-03-01T08:07:20.445Z,999.94
2019-03-01T08:08:20.147Z,999.99
2019-03-01T08:09:20.151Z,999.91
2019-03-01T08:10:22.379Z,1000.01
2019-03-01T08:11:20.221Z,1000.00
2019-03-01T08:12:20.195Z,1000.01
2019-03-01T08:13:20.182Z,1000.02
2019-03-01T08:14:20.194Z,999.96
2019-03-01T08:15:20.212Z,999.96
2019-03-01T08:16:21.473Z,999.94
2019-03-01T08:17:20.223Z,999.95
2019-03-01T08:18:20.224Z,999.97
2019-03-01T08:19:22.393Z,999.95
2019-03-01T08:20:20.195Z,999.96
2019-03-01T08:22:20.751Z,999.98
2019-03-01T08:24:20.149Z,1000.01
2019-03-01T08:25:23.413Z,1000.05
2019-03-01T08:26:20.231Z,1000.02
2019-03-01T08:27:20.156Z,999.97
2019-03-01T08:28:21.964Z,999.99
2019-03-01T08:29:20.158Z,1000.00
2019-03-01T08:30:20.163Z,1000.00
2019-03-01T08:31:20.984Z,999.99
2019-03-01T08:32:20.140Z,1000.05
2019-03-01T08:33:20.112Z,1000.04
2019-03-01T08:34:20.119Z,1000.10
2019-03-01T08:35:20.226Z,1000.17
2019-03-01T08:36:20.159Z,1000.10
2019-03-01T08:37:20.225Z,1000.13
2019-03-01T08:38:20.238Z,1000.11
2019-03-01T08:39:20.237Z,1000.12
2019-03-01T08:40:20.223Z,1000.09
2019-03-01T08:41:21.494Z,1000.14
2019-03-01T08:42:20.241Z,1000.14
2019-03-01T08:43:20.178Z,1000.15
2019-03-01T08:44:23.112Z,1000.15
2019-03-01T08:45:20.251Z,1000.19
2019-03-01T08:46:20.176Z,1000.17
2019-03-01T08:47:23.506Z,1000.19
2019-03-01T08:48:20.180Z,1000.19
2019-03-01T08:49:20.174Z,1000.21
2019-03-01T08:50:20.274Z,1000.23
2019-03-01T08:51:22.780Z,1000.21
2019-03-01T08:52:20.255Z,1000.18
2019-03-01T08:53:20.222Z,1000.19
2019-03-01T08:54:22.993Z,1000.20
2019-03-01T08:55:20.197Z,1000.22
2019-03-01T08:56:25.780Z,1000.24
2019-03-01T08:57:22.629Z,1000.22
2019-03-01T08:58:20.263Z,1000.21
2019-03-01T08:59:20.272Z,1000.24
2019-03-01T09:00:23.216Z,1000.19
2019-03-01T09:01:20.194Z,1000.25
2019-03-01T09:02:20.268Z,1000.27
2019-03-01T09:03:22.428Z,1000.25
2019-03-01T09:04:21.595Z,1000.22
2019-03-01T09:05:20.219Z,1000.28
2019-03-01T09:06:20.273Z,1000.26
2019-03-01T09:07:20.274Z,1000.28
2019-03-01T09:08:20.209Z,1000.26
2019-03-01T09:09:21.045Z,1000.30
2019-03-01T09:10:20.239Z,1000.30
2019-03-01T09:11:20.267Z,1000.31
2019-03-01T09:12:20.230Z,1000.31
2019-03-01T09:13:20.206Z,1000.34
2019-03-01T09:14:22.716Z,1000.32
2019-03-01T09:15:20.170Z,1000.34
2019-03-01T09:16:20.210Z,1000.34
2019-03-01T09:17:20.178Z,1000.34
2019-03-01T09:18:20.224Z,1000.38
2019-03-01T09:19:22.339Z,1000.34
2019-03-01T09:20:20.268Z,1000.33
2019-03-01T09:21:20.230Z,1000.34
2019-03-01T09:22:20.227Z,1000.32
2019-03-01T09:23:25.226Z,1000.28
2019-03-01T09:24:20.136Z,1000.29
2019-03-01T09:25:20.196Z,1000.29
2019-03-01T09:26:20.755Z,1000.28
2019-03-01T09:27:20.147Z,1000.31
2019-03-01T09:28:20.205Z,1000.32
2019-03-01T09:29:20.163Z,1000.28
2019-03-01T09:30:20.199Z,1000.31
2019-03-01T09:31:20.215Z,1000.36
2019-03-01T09:32:20.292Z,1000.39
2019-03-01T09:33:21.275Z,1000.43
2019-03-01T09:34:20.290Z,1000.41
2019-03-01T09:35:20.291Z,1000.43
2019-03-01T09:36:21.362Z,1000.44
2019-03-01T09:37:20.352Z,1000.41
2019-03-01T09:38:20.228Z,1000.41
2019-03-01T09:39:20.229Z,1000.46
2019-03-01T09:40:20.299Z,1000.40
2019-03-01T09:41:20.292Z,1000.46
2019-03-01T09:42:20.306Z,1000.44
2019-03-01T09:43:20.297Z,1000.46
2019-03-01T09:44:20.294Z,1000.45
2019-03-01T09:45:20.311Z,1000.49
2019-03-01T09:46:20.973Z,1000.45
2019-03-01T09:47:20.238Z,1000.48
2019-03-01T09:48:20.297Z,1000.44
2019-03-01T09:49:21.510Z,1000.46
2019-03-01T09:50:20.306Z,1000.44
2019-03-01T09:51:20.231Z,1000.42
2019-03-01T09:52:20.520Z,1000.41
2019-03-01T09:53:20.232Z,1000.42
2019-03-01T09:54:20.231Z,1000.41
2019-03-01T09:55:20.310Z,1000.42
2019-03-01T09:56:20.308Z,1000.39
2019-03-01T09:57:20.326Z,1000.42
2019-03-01T09:58:20.241Z,1000.41
2019-03-01T09:59:20.240Z,1000.35
2019-03-01T10:00:20.305Z,1000.38
2019-03-01T10:01:20.236Z,1000.37
2019-03-01T10:02:20.237Z,1000.32
2019-03-01T10:03:20.187Z,1000.37
2019-03-01T10:04:20.295Z,1000.38
2019-03-01T10:05:20.300Z,1000.39
2019-03-01T10:06:20.242Z,1000.40
2019-03-01T10:07:20.286Z,1000.42
2019-03-01T10:08:20.243Z,1000.40
2019-03-01T10:09:20.243Z,1000.44
2019-03-01T10:10:20.214Z,1000.50
2019-03-01T10:11:20.241Z,1000.49
2019-03-01T10:12:20.210Z,1000.51
2019-03-01T10:13:20.186Z,1000.54
2019-03-01T10:14:20.505Z,1000.53
2019-03-01T10:15:20.229Z,1000.53
2019-03-01T10:16:20.298Z,1000.52
2019-03-01T10:17:20.310Z,1000.55
2019-03-01T10:18:20.288Z,1000.56
2019-03-01T10:19:20.257Z,1000.57
2019-03-01T10:20:20.223Z,1000.56
2019-03-01T10:21:20.263Z,1000.53
2019-03-01T10:22:20.261Z,1000.55
2019-03-01T10:23:20.292Z,1000.55
2019-03-01T10:24:20.321Z,1000.50
2019-03-01T10:25:20.258Z,1000.49
2019-03-01T10:26:20.322Z,1000.49
2019-03-01T10:27:20.253Z,1000.51
2019-03-01T10:28:20.336Z,1000.51
2019-03-01T10:29:20.259Z,1000.48
2019-03-01T10:30:20.259Z,1000.50
2019-03-01T10:31:20.332Z,1000.49
2019-03-01T10:32:20.332Z,1000.50
2019-03-01T10:33:20.289Z,1000.48
2019-03-01T10:34:20.332Z,1000.51
2019-03-01T10:35:20.332Z,1000.52
2019-03-01T10:36:20.268Z,1000.52
2019-03-01T10:37:20.360Z,1000.54
2019-03-01T10:38:20.309Z,1000.54
2019-03-01T10:39:20.372Z,1000.50
2019-03-01T10:40:20.266Z,1000.50
2019-03-01T10:41:20.341Z,1000.51
2019-03-01T10:42:20.271Z,1000.48
2019-03-01T10:43:20.330Z,1000.54
2019-03-01T10:44:20.340Z,1000.54
2019-03-01T10:45:20.332Z,1000.53
2019-03-01T10:46:20.344Z,1000.52
2019-03-01T10:47:20.339Z,1000.51
2019-03-01T10:48:20.439Z,1000.46
2019-03-01T10:49:20.274Z,1000.51
2019-03-01T10:50:20.269Z,1000.47
2019-03-01T10:51:20.344Z,1000.48
2019-03-01T10:52:20.325Z,1000.50
2019-03-01T10:53:20.329Z,1000.50
2019-03-01T10:54:20.270Z,1000.50
2019-03-01T10:55:20.259Z,1000.53
2019-03-01T10:56:20.335Z,1000.53
2019-03-01T10:57:20.335Z,1000.56
2019-03-01T10:58:20.337Z,1000.57
2019-03-01T10:59:20.339Z,1000.59
2019-03-01T11:00:20.295Z,1000.60
2019-03-01T11:01:20.262Z,1000.60
2019-03-01T11:02:20.243Z,1000.56
2019-03-01T11:03:20.264Z,1000.59
2019-03-01T11:04:20.236Z,1000.61
2019-03-01T11:05:20.208Z,1000.64
2019-03-01T11:06:20.243Z,1000.64
2019-03-01T11:07:20.220Z,1000.62
2019-03-01T11:08:20.234Z,1000.68
2019-03-01T11:09:20.247Z,1000.72
2019-03-01T11:10:20.295Z,1000.71
2019-03-01T11:11:20.215Z,1000.78
2019-03-01T11:12:20.347Z,1000.77
2019-03-01T11:13:20.253Z,1000.80
2019-03-01T11:14:20.313Z,1000.84
2019-03-01T11:15:20.319Z,1000.89
2019-03-01T11:16:20.333Z,1000.88
2019-03-01T11:17:20.282Z,1000.97
2019-03-01T11:18:20.339Z,1000.94
2019-03-01T11:19:20.322Z,1000.93
2019-03-01T11:20:20.310Z,1000.94
2019-03-01T11:21:20.257Z,1000.94
2019-03-01T11:22:20.365Z,1000.95
2019-03-01T11:23:20.366Z,1000.92
2019-03-01T11:24:20.371Z,1000.97
2019-03-01T11:25:20.358Z,1000.95
2019-03-01T11:26:20.370Z,1000.95
2019-03-01T11:27:20.309Z,1000.95
2019-03-01T11:28:20.367Z,1000.96
2019-03-01T11:29:20.299Z,1000.94
2019-03-01T11:30:20.379Z,1000.96
2019-03-01T11:31:20.396Z,1000.94
2019-03-01T11:32:20.317Z,1000.99
2019-03-01T11:33:20.395Z,1000.99
2019-03-01T11:34:20.376Z,1000.96
2019-03-01T11:35:20.319Z,1000.97
2019-03-01T11:36:20.271Z,1000.92
2019-03-01T11:37:20.360Z,1000.98
2019-03-01T11:38:20.382Z,1000.98
2019-03-01T11:39:20.381Z,1000.99
2019-03-01T11:40:20.578Z,1001.00
2019-03-01T11:41:20.307Z,1001.04
2019-03-01T11:42:20.309Z,1001.00
2019-03-01T11:43:20.392Z,1001.01
2019-03-01T11:44:20.381Z,1001.04
2019-03-01T11:45:20.321Z,1001.08
2019-03-01T11:46:20.318Z,1001.10
2019-03-01T11:47:20.384Z,1001.11
2019-03-01T11:48:20.335Z,1001.12
2019-03-01T11:49:20.313Z,1001.13
2019-03-01T11:50:20.387Z,1001.10
2019-03-01T11:51:20.321Z,1001.17
2019-03-01T11:52:20.289Z,1001.20
2019-03-01T11:53:20.243Z,1001.17
2019-03-01T11:54:20.334Z,1001.21
2019-03-01T11:55:20.254Z,1001.18
2019-03-01T11:56:20.357Z,1001.22
2019-03-01T11:57:20.310Z,1001.24
2019-03-01T11:58:20.359Z,1001.21
2019-03-01T11:59:20.358Z,1001.25
2019-03-01T12:00:20.328Z,1001.19
2019-03-01T12:01:20.311Z,1001.25
2019-03-01T12:02:20.391Z,1001.27
2019-03-01T12:03:20.400Z,1001.29
2019-03-01T12:04:20.323Z,1001.24
2019-03-01T12:05:20.343Z,1001.30
2019-03-01T12:06:20.395Z,1001.29
2019-03-01T12:07:20.394Z,1001.31
2019-03-01T12:08:20.399Z,1001.31
2019-03-01T12:09:20.398Z,1001.31
2019-03-01T12:10:20.399Z,1001.33
2019-03-01T12:11:20.411Z,1001.35
2019-03-01T12:12:20.389Z,1001.29
2019-03-01T12:13:20.325Z,1001.35
2019-03-01T12:14:20.392Z,1001.37
2019-03-01T12:15:20.324Z,1001.35
2019-03-01T12:16:20.397Z,1001.34
2019-03-01T12:17:20.332Z,1001.40